createdAt,value
2019-03-12T00:00:35.627Z,-1.80
2019-03-12T00:03:05.574Z,-1.90
2019-03-12T00:05:35.033Z,-1.90
2019-03-12T00:08:04.520Z,-2.00
2019-03-12T00:10:33.996Z,-2.00
2019-03-12T00:13:03.479Z,-2.00
2019-03-12T00:15:32.956Z,-2.10
2019-03-12T00:18:02.480Z,-2.10
2019-03-12T00:20:31.913Z,-2.10
2019-03-12T00:23:01.355Z,-2.20
2019-03-12T00:25:30.946Z,-2.20
2019-03-12T00:28:00.388Z,-2.20
2019-03-12T00:30:29.860Z,-2.20
2019-03-12T00:32:59.312Z,-2.20
2019-03-12T00:35:28.785Z,-2.20
2019-03-12T00:37:58.216Z,-2.20
2019-03-12T00:40:27.695Z,-2.20
2019-03-12T00:42:57.128Z,-2.20
2019-03-12T00:45:26.619Z,-2.20
2019-03-12T00:47:56.084Z,-2.20
2019-03-12T00:50:25.564Z,-2.20
2019-03-12T00:52:55.072Z,-2.10
2019-03-12T00:55:24.503Z,-2.20
2019-03-12T00:57:53.947Z,-2.10
2019-03-12T01:00:23.423Z,-2.10
2019-03-12T01:02:52.891Z,-2.10
2019-03-12T01:05:22.348Z,-2.10
2019-03-12T01:07:51.803Z,-2.20
2019-03-12T01:10:21.267Z,-2.10
2019-03-12T01:12:50.715Z,-2.10
2019-03-12T01:15:20.169Z,-2.20
2019-03-12T01:17:49.627Z,-2.20
2019-03-12T01:20:19.063Z,-2.20
2019-03-12T01:22:48.535Z,-2.20
2019-03-12T01:25:17.984Z,-2.20
2019-03-12T01:27:47.440Z,-2.10
2019-03-12T01:30:17.473Z,-2.10
2019-03-12T01:32:47.011Z,-2.10
2019-03-12T01:35:16.452Z,-2.10
2019-03-12T01:37:45.909Z,-2.00
2019-03-12T01:40:16.275Z,-1.90
2019-03-12T01:42:45.870Z,-1.90
2019-03-12T01:45:15.624Z,-1.80
2019-03-12T01:47:45.131Z,-1.70
2019-03-12T01:50:14.790Z,-1.60
2019-03-12T01:52:44.174Z,-1.50
2019-03-12T01:55:13.693Z,-1.40
2019-03-12T01:57:43.143Z,-1.40
2019-03-12T02:00:15.343Z,-1.30
2019-03-12T02:02:44.825Z,-1.20
2019-03-12T02:05:14.279Z,-1.10
2019-03-12T02:07:43.853Z,-1.10
2019-03-12T02:10:14.045Z,-1.00
2019-03-12T02:12:43.536Z,-0.90
2019-03-12T02:15:13.061Z,-0.80
2019-03-12T02:17:42.484Z,-0.70
2019-03-12T02:20:14.358Z,-0.60
2019-03-12T02:22:43.808Z,-0.50
2019-03-12T02:25:14.397Z,-0.40
2019-03-12T02:27:43.858Z,-0.40
2019-03-12T02:30:15.113Z,-0.30
2019-03-12T02:32:45.060Z,-0.30
2019-03-12T02:35:14.657Z,-0.20
2019-03-12T02:37:44.104Z,-0.20
2019-03-12T02:40:13.668Z,-0.10
2019-03-12T02:42:43.144Z,-0.10
2019-03-12T02:45:12.793Z,-0.10
2019-03-12T02:47:42.287Z,-0.10
2019-03-12T02:50:12.074Z,-0.10
2019-03-12T02:52:41.540Z,-0.10
2019-03-12T02:55:11.128Z,-0.10
2019-03-12T02:57:40.598Z,-0.10
2019-03-12T03:00:15.617Z,-0.10
2019-03-12T03:02:45.102Z,-0.10
2019-03-12T03:05:14.697Z,-0.10
2019-03-12T03:07:58.077Z,-0.10
2019-03-12T03:10:27.568Z,-0.10
2019-03-12T03:12:57.103Z,0.00
2019-03-12T03:15:29.032Z,0.00
2019-03-12T03:17:58.478Z,0.10
2019-03-12T03:20:27.912Z,0.10
2019-03-12T03:22:57.379Z,0.10
2019-03-12T03:25:26.855Z,0.20
2019-03-12T03:27:56.300Z,0.20
2019-03-12T03:30:25.821Z,0.20
2019-03-12T03:32:55.233Z,0.30
2019-03-12T03:35:24.702Z,0.30
2019-03-12T03:37:54.162Z,0.30
2019-03-12T03:40:23.725Z,0.40
2019-03-12T03:42:53.201Z,0.40
2019-03-12T03:45:22.913Z,0.40
2019-03-12T03:47:52.356Z,0.50
2019-03-12T03:50:21.852Z,0.50
2019-03-12T03:52:51.319Z,0.50
2019-03-12T03:55:20.805Z,0.50
2019-03-12T03:57:50.317Z,0.50
2019-03-12T04:00:21.072Z,0.50
2019-03-12T04:02:50.698Z,0.50
2019-03-12T04:05:20.285Z,0.50
2019-03-12T04:07:49.894Z,0.50
2019-03-12T04:10:19.387Z,0.60
2019-03-12T04:12:48.939Z,0.60
2019-03-12T04:15:18.388Z,0.60
2019-03-12T04:17:47.974Z,0.60
2019-03-12T04:20:18.268Z,0.60
2019-03-12T04:22:47.722Z,0.60
2019-03-12T04:25:17.211Z,0.70
2019-03-12T04:27:46.644Z,0.70
2019-03-12T04:30:16.454Z,0.80
2019-03-12T04:32:45.882Z,0.80
2019-03-12T04:35:16.676Z,0.80
2019-03-12T04:37:46.108Z,0.80
2019-03-12T04:40:15.665Z,0.80
2019-03-12T04:42:45.100Z,0.80
2019-03-12T04:45:15.549Z,0.80
2019-03-12T04:47:44.996Z,0.90
2019-03-12T04:50:14.845Z,0.90
2019-03-12T04:52:44.503Z,0.90
2019-03-12T04:55:14.089Z,1.00
2019-03-12T04:57:43.623Z,1.00
2019-03-12T05:00:15.279Z,1.00
2019-03-12T05:02:44.755Z,1.10
2019-03-12T05:05:14.183Z,1.10
2019-03-12T05:07:43.642Z,1.10
2019-03-12T05:10:13.661Z,1.20
2019-03-12T05:12:43.212Z,1.20
2019-03-12T05:15:13.353Z,1.20
2019-03-12T05:17:43.053Z,1.20
2019-03-12T05:20:13.508Z,1.20
2019-03-12T05:22:42.942Z,1.20
2019-03-12T05:25:12.951Z,1.30
2019-03-12T05:27:42.828Z,1.30
2019-03-12T05:30:14.922Z,1.30
2019-03-12T05:32:44.389Z,1.40
2019-03-12T05:35:14.087Z,1.40
2019-03-12T05:37:43.615Z,1.50
2019-03-12T05:40:13.083Z,1.50
2019-03-12T05:42:42.520Z,1.60
2019-03-12T05:45:12.351Z,1.60
2019-03-12T05:47:41.845Z,1.70
2019-03-12T05:50:11.664Z,1.70
2019-03-12T05:52:41.125Z,1.70
2019-03-12T05:55:11.094Z,1.80
2019-03-12T05:57:40.531Z,1.80
2019-03-12T06:00:11.271Z,1.90
2019-03-12T06:02:41.832Z,1.90
2019-03-12T06:05:11.341Z,1.90
2019-03-12T06:07:40.787Z,1.90
2019-03-12T06:10:10.583Z,1.90
2019-03-12T06:12:40.061Z,2.00
2019-03-12T06:15:09.869Z,1.90
2019-03-12T06:17:39.450Z,2.00
2019-03-12T06:20:09.464Z,2.00
2019-03-12T06:22:38.907Z,2.00
2019-03-12T06:25:08.582Z,2.00
2019-03-12T06:27:38.206Z,2.00
2019-03-12T06:30:09.027Z,2.10
2019-03-12T06:32:48.806Z,2.00
2019-03-12T06:35:34.810Z,2.10
2019-03-12T06:38:19.262Z,2.10
2019-03-12T06:41:07.756Z,2.10
2019-03-12T06:43:44.025Z,2.20
2019-03-12T06:46:29.955Z,2.30
2019-03-12T06:49:06.565Z,2.30
2019-03-12T06:51:55.031Z,2.40
2019-03-12T06:54:33.804Z,2.40
2019-03-12T06:57:26.799Z,2.50
2019-03-12T07:00:17.955Z,2.60
2019-03-12T07:02:57.356Z,2.60
2019-03-12T07:06:00.601Z,2.70
2019-03-12T07:08:51.551Z,2.80
2019-03-12T07:11:43.675Z,2.90
2019-03-12T07:14:35.407Z,3.00
2019-03-12T07:17:29.760Z,3.00
2019-03-12T07:20:16.684Z,3.10
2019-03-12T07:22:52.412Z,3.10
2019-03-12T07:25:36.133Z,3.10
2019-03-12T07:28:21.115Z,3.20
2019-03-12T07:31:07.958Z,3.20
2019-03-12T07:33:59.190Z,3.30
2019-03-12T07:36:45.804Z,3.40
2019-03-12T07:39:26.143Z,3.50
2019-03-12T07:42:12.932Z,3.50
2019-03-12T07:45:08.100Z,3.60
2019-03-12T07:47:59.315Z,3.60
2019-03-12T07:50:49.725Z,3.60
2019-03-12T07:53:38.128Z,3.70
2019-03-12T07:56:24.722Z,3.70
2019-03-12T07:59:09.730Z,3.80
2019-03-12T08:01:47.872Z,3.90
2019-03-12T08:04:38.945Z,3.90
2019-03-12T08:07:30.111Z,4.00
2019-03-12T08:10:30.219Z,4.10
2019-03-12T08:13:18.615Z,4.10
2019-03-12T08:16:08.875Z,4.20
2019-03-12T08:19:12.286Z,4.40
2019-03-12T08:22:07.904Z,4.60
2019-03-12T08:24:56.310Z,4.80
2019-03-12T08:27:53.644Z,4.90
2019-03-12T08:30:34.182Z,4.90
2019-03-12T08:33:21.093Z,5.00
2019-03-12T08:36:01.777Z,5.00
2019-03-12T08:38:46.268Z,5.00
2019-03-12T08:41:39.936Z,5.00
2019-03-12T08:44:28.931Z,5.00
2019-03-12T08:47:20.406Z,5.00
2019-03-12T08:50:07.032Z,5.10
2019-03-12T08:52:53.252Z,5.10
2019-03-12T08:55:53.563Z,5.20
2019-03-12T08:58:38.968Z,5.20
2019-03-12T09:01:39.212Z,5.30
2019-03-12T09:04:26.331Z,5.40
2019-03-12T09:07:14.681Z,5.50
2019-03-12T09:10:08.884Z,5.60
2019-03-12T09:12:48.848Z,5.70
2019-03-12T09:15:33.244Z,5.80
2019-03-12T09:18:39.395Z,5.80
2019-03-12T09:21:42.405Z,5.80
2019-03-12T09:24:17.467Z,5.80
2019-03-12T09:27:11.498Z,5.80
2019-03-12T09:30:00.347Z,5.80
2019-03-12T09:32:51.530Z,5.90
2019-03-12T09:35:54.867Z,5.90
2019-03-12T09:38:46.180Z,5.90
2019-03-12T09:41:21.469Z,5.90
2019-03-12T09:44:12.530Z,5.90
2019-03-12T09:47:06.887Z,6.00
2019-03-12T09:49:46.668Z,6.00
2019-03-12T09:52:24.539Z,6.10
2019-03-12T09:55:05.006Z,6.20
2019-03-12T09:57:53.506Z,6.20
2019-03-12T10:00:41.924Z,6.10
2019-03-12T10:03:30.764Z,6.20
2019-03-12T10:06:17.751Z,6.30
2019-03-12T10:09:02.246Z,6.40
2019-03-12T10:12:05.500Z,6.50
2019-03-12T10:14:52.287Z,6.50
2019-03-12T10:17:40.724Z,6.50
2019-03-12T10:20:28.039Z,6.50
2019-03-12T10:23:16.499Z,6.50
2019-03-12T10:25:57.373Z,6.50
2019-03-12T10:29:00.197Z,6.60
2019-03-12T10:31:51.498Z,6.60
2019-03-12T10:34:57.891Z,6.70
2019-03-12T10:37:45.284Z,6.80
2019-03-12T10:40:42.628Z,6.90
2019-03-12T10:43:31.021Z,6.90
2019-03-12T10:46:07.412Z,7.00
2019-03-12T10:48:36.867Z,7.00
2019-03-12T10:51:06.666Z,7.00
2019-03-12T10:53:36.313Z,7.10
2019-03-12T10:56:05.999Z,7.10
2019-03-12T10:58:35.596Z,7.10
2019-03-12T11:01:05.070Z,7.10
2019-03-12T11:03:34.635Z,7.10
2019-03-12T11:06:04.287Z,7.10
2019-03-12T11:08:33.783Z,7.10
2019-03-12T11:11:03.225Z,7.20
2019-03-12T11:13:32.760Z,7.20
2019-03-12T11:16:02.241Z,7.30
2019-03-12T11:18:31.776Z,7.30
2019-03-12T11:21:01.220Z,7.30
2019-03-12T11:23:30.723Z,7.30
2019-03-12T11:26:00.838Z,7.30
2019-03-12T11:28:30.266Z,7.40
2019-03-12T11:30:59.802Z,7.40
2019-03-12T11:33:29.288Z,7.40
2019-03-12T11:35:58.817Z,7.40
2019-03-12T11:38:28.554Z,7.30
2019-03-12T11:40:57.986Z,7.40
2019-03-12T11:43:27.492Z,7.40
2019-03-12T11:46:00.448Z,7.50
2019-03-12T11:48:30.018Z,7.50
2019-03-12T11:50:59.453Z,7.50
2019-03-12T11:53:29.266Z,7.50
2019-03-12T11:55:58.648Z,7.60
2019-03-12T11:58:28.077Z,7.60
2019-03-12T12:00:59.807Z,7.60
2019-03-12T12:03:29.237Z,7.60
2019-03-12T12:05:58.730Z,7.60
2019-03-12T12:08:28.216Z,7.60
2019-03-12T12:10:57.744Z,7.70
2019-03-12T12:13:27.177Z,7.70
2019-03-12T12:15:56.847Z,7.70
2019-03-12T12:18:26.289Z,7.60
2019-03-12T12:20:55.797Z,7.60
2019-03-12T12:23:25.179Z,7.60
2019-03-12T12:25:54.659Z,7.70
2019-03-12T12:28:24.211Z,7.80
2019-03-12T12:30:53.861Z,7.80
2019-03-12T12:33:26.387Z,7.80
2019-03-12T12:35:55.935Z,7.80
2019-03-12T12:38:27.129Z,7.90
2019-03-12T12:40:57.445Z,7.90
2019-03-12T12:43:26.877Z,7.90
2019-03-12T12:45:56.360Z,7.90
2019-03-12T12:48:25.811Z,7.90
2019-03-12T12:51:02.939Z,7.90
2019-03-12T12:53:30.270Z,7.90
2019-03-12T12:55:59.717Z,7.90
2019-03-12T12:58:29.167Z,7.90
2019-03-12T13:00:58.633Z,7.90
2019-03-12T13:03:28.099Z,7.80
2019-03-12T13:05:57.583Z,7.80
2019-03-12T13:08:30.031Z,7.70
2019-03-12T13:10:59.560Z,7.60
2019-03-12T13:13:29.193Z,7.60
2019-03-12T13:16:01.659Z,7.50
2019-03-12T13:18:31.144Z,7.40
2019-03-12T13:21:00.769Z,7.40
2019-03-12T13:23:30.608Z,7.30
2019-03-12T13:26:00.035Z,7.30
2019-03-12T13:28:29.484Z,7.30
2019-03-12T13:30:58.961Z,7.20
2019-03-12T13:33:28.396Z,7.20
2019-03-12T13:35:57.836Z,7.20
2019-03-12T13:38:27.553Z,7.20
2019-03-12T13:40:57.066Z,7.10
2019-03-12T13:43:26.528Z,7.00
2019-03-12T13:45:55.993Z,7.00
2019-03-12T13:48:25.954Z,6.90
2019-03-12T13:50:55.476Z,6.90
2019-03-12T13:53:25.178Z,6.80
2019-03-12T13:55:54.600Z,6.70
2019-03-12T13:58:24.267Z,6.60
2019-03-12T14:00:53.728Z,6.60
2019-03-12T14:03:23.295Z,6.50
2019-03-12T14:05:53.017Z,6.50
2019-03-12T14:08:22.382Z,6.50
2019-03-12T14:10:51.852Z,6.50
2019-03-12T14:13:21.298Z,6.40
2019-03-12T14:15:50.735Z,6.40
2019-03-12T14:18:20.208Z,6.40
2019-03-12T14:20:51.723Z,6.40
2019-03-12T14:23:24.131Z,6.40
2019-03-12T14:25:53.640Z,6.40
2019-03-12T14:28:23.339Z,6.40
2019-03-12T14:30:52.828Z,6.40
2019-03-12T14:33:22.288Z,6.40
2019-03-12T14:35:52.485Z,6.40
2019-03-12T14:38:21.999Z,6.30
2019-03-12T14:40:51.603Z,6.30
2019-03-12T14:43:21.105Z,6.20
2019-03-12T14:45:51.637Z,6.20
2019-03-12T14:48:45.737Z,6.10
2019-03-12T14:51:22.013Z,6.00
2019-03-12T14:53:52.553Z,5.90
2019-03-12T14:56:22.520Z,5.90
2019-03-12T14:58:51.988Z,5.80
2019-03-12T15:01:21.638Z,5.80
2019-03-12T15:03:51.123Z,5.70
2019-03-12T15:06:20.602Z,5.70
2019-03-12T15:08:50.047Z,5.60
2019-03-12T15:11:19.516Z,5.60
2019-03-12T15:13:48.975Z,5.50
2019-03-12T15:16:18.433Z,5.40
2019-03-12T15:18:47.912Z,5.40
2019-03-12T15:21:17.364Z,5.30
2019-03-12T15:23:46.901Z,5.30
2019-03-12T15:26:16.368Z,5.30
2019-03-12T15:28:45.836Z,5.20
2019-03-12T15:31:15.296Z,5.20
2019-03-12T15:33:44.818Z,5.10
2019-03-12T15:36:14.246Z,5.10
2019-03-12T15:38:43.821Z,5.10
2019-03-12T15:41:13.279Z,5.10
2019-03-12T15:43:42.711Z,5.00
2019-03-12T15:46:12.231Z,5.00
2019-03-12T15:48:41.652Z,5.00
2019-03-12T15:51:11.093Z,5.00
2019-03-12T15:53:40.725Z,5.00
2019-03-12T15:56:10.203Z,4.90
2019-03-12T15:58:42.416Z,4.90
2019-03-12T16:01:11.883Z,4.90
2019-03-12T16:03:42.004Z,4.90
2019-03-12T16:06:11.525Z,4.90
2019-03-12T16:08:41.022Z,4.90
2019-03-12T16:11:10.492Z,4.90
2019-03-12T16:13:39.996Z,4.90
2019-03-12T16:16:09.471Z,4.90
2019-03-12T16:18:38.917Z,4.80
2019-03-12T16:21:08.355Z,4.80
2019-03-12T16:23:37.933Z,4.80
2019-03-12T16:26:07.417Z,4.80
2019-03-12T16:28:37.115Z,4.80
2019-03-12T16:31:06.603Z,4.80
2019-03-12T16:33:36.055Z,4.70
2019-03-12T16:36:05.524Z,4.70
2019-03-12T16:38:35.008Z,4.60
2019-03-12T16:41:04.550Z,4.60
2019-03-12T16:43:34.928Z,4.60
2019-03-12T16:46:04.375Z,4.60
2019-03-12T16:48:33.926Z,4.60
2019-03-12T16:51:03.447Z,4.60
2019-03-12T16:53:32.905Z,4.50
2019-03-12T16:56:02.407Z,4.50
2019-03-12T16:58:31.896Z,4.50
2019-03-12T17:01:01.429Z,4.50
2019-03-12T17:03:30.896Z,4.50
2019-03-12T17:06:00.311Z,4.50
2019-03-12T17:08:29.927Z,4.50
2019-03-12T17:11:02.640Z,4.50
2019-03-12T17:13:31.114Z,4.50
2019-03-12T17:16:00.862Z,4.50
2019-03-12T17:18:31.635Z,4.50
2019-03-12T17:21:01.300Z,4.50
2019-03-12T17:23:30.817Z,4.50
2019-03-12T17:26:00.290Z,4.50
2019-03-12T17:28:29.761Z,4.50
2019-03-12T17:30:59.246Z,4.50
2019-03-12T17:33:28.770Z,4.50
2019-03-12T17:35:58.311Z,4.50
2019-03-12T17:38:27.900Z,4.50
2019-03-12T17:40:57.614Z,4.50
2019-03-12T17:43:27.176Z,4.50
2019-03-12T17:45:56.691Z,4.50
2019-03-12T17:48:26.192Z,4.50
2019-03-12T17:50:57.931Z,4.50
2019-03-12T17:53:27.380Z,4.50
2019-03-12T17:55:56.832Z,4.50
2019-03-12T17:58:26.396Z,4.40
2019-03-12T18:00:55.911Z,4.50
2019-03-12T18:03:25.408Z,4.40
2019-03-12T18:05:54.950Z,4.50
2019-03-12T18:08:24.456Z,4.50
2019-03-12T18:10:53.893Z,4.50
2019-03-12T18:13:23.618Z,4.50
2019-03-12T18:15:53.107Z,4.50
2019-03-12T18:18:22.588Z,4.50
2019-03-12T18:20:52.032Z,4.50
2019-03-12T18:23:21.570Z,4.50
2019-03-12T18:25:51.414Z,4.50
2019-03-12T18:28:20.940Z,4.50
2019-03-12T18:30:50.448Z,4.50
2019-03-12T18:33:19.951Z,4.50
2019-03-12T18:35:49.441Z,4.50
2019-03-12T18:38:19.178Z,4.50
2019-03-12T18:40:48.704Z,4.50
2019-03-12T18:43:18.217Z,4.50
2019-03-12T18:45:47.804Z,4.60
2019-03-12T18:48:17.404Z,4.60
2019-03-12T18:50:46.922Z,4.60
2019-03-12T18:53:16.584Z,4.50
2019-03-12T18:56:13.866Z,4.50
2019-03-12T18:58:43.513Z,4.50
2019-03-12T19:01:16.721Z,4.50
2019-03-12T19:03:46.321Z,4.50
2019-03-12T19:06:15.814Z,4.50
2019-03-12T19:08:48.120Z,4.50
2019-03-12T19:11:16.744Z,4.50
2019-03-12T19:13:46.429Z,4.50
2019-03-12T19:16:15.948Z,4.50
2019-03-12T19:18:45.529Z,4.50
2019-03-12T19:21:15.037Z,4.50
2019-03-12T19:23:44.796Z,4.40
2019-03-12T19:26:14.436Z,4.50
2019-03-12T19:28:44.033Z,4.40
2019-03-12T19:31:39.216Z,4.40
2019-03-12T19:34:12.557Z,4.40
2019-03-12T19:36:42.020Z,4.40
2019-03-12T19:39:13.043Z,4.40
2019-03-12T19:41:42.515Z,4.40
2019-03-12T19:44:12.012Z,4.40
2019-03-12T19:46:41.577Z,4.40
2019-03-12T19:49:11.119Z,4.40
2019-03-12T19:51:40.601Z,4.40
2019-03-12T19:54:10.066Z,4.30
2019-03-12T19:56:39.549Z,4.30
2019-03-12T19:59:09.216Z,4.30
2019-03-12T20:01:40.047Z,4.30
2019-03-12T20:04:09.534Z,4.30
2019-03-12T20:06:39.305Z,4.30
2019-03-12T20:09:10.364Z,4.30
2019-03-12T20:12:38.941Z,4.30
2019-03-12T20:15:55.613Z,4.30
2019-03-12T20:19:08.167Z,4.20
2019-03-12T20:22:14.095Z,4.20
2019-03-12T20:25:45.611Z,4.20
2019-03-12T20:28:57.764Z,4.20
2019-03-12T20:31:56.736Z,4.20
2019-03-12T20:35:05.169Z,4.20
2019-03-12T20:38:05.385Z,4.20
2019-03-12T20:41:30.778Z,4.20
2019-03-12T20:45:02.049Z,4.20
2019-03-12T20:48:08.464Z,4.20
2019-03-12T20:51:23.294Z,4.20
2019-03-12T20:54:36.421Z,4.20
2019-03-12T20:57:41.420Z,4.20
2019-03-12T21:01:06.963Z,4.20
2019-03-12T21:04:17.126Z,4.30
2019-03-12T21:07:28.189Z,4.20
2019-03-12T21:10:46.464Z,4.30
2019-03-12T21:13:59.882Z,4.30
2019-03-12T21:17:11.544Z,4.30
2019-03-12T21:20:27.900Z,4.30
2019-03-12T21:23:20.009Z,4.20
2019-03-12T21:26:09.332Z,4.20
2019-03-12T21:29:11.058Z,4.20
2019-03-12T21:31:40.593Z,4.20
2019-03-12T21:34:10.140Z,4.20
2019-03-12T21:36:39.727Z,4.20
2019-03-12T21:39:09.977Z,4.20
2019-03-12T21:41:39.789Z,4.20
2019-03-12T21:44:09.716Z,4.20
2019-03-12T21:46:39.210Z,4.10
2019-03-12T21:49:09.589Z,4.10
2019-03-12T21:51:39.110Z,4.10
2019-03-12T21:54:08.612Z,4.10
2019-03-12T21:56:38.170Z,4.10
2019-03-12T21:59:07.849Z,4.10
2019-03-12T22:01:37.433Z,4.10
2019-03-12T22:04:06.934Z,4.10
2019-03-12T22:06:36.387Z,4.10
2019-03-12T22:09:06.546Z,4.10
2019-03-12T22:11:36.014Z,4.10
2019-03-12T22:14:05.515Z,4.10
2019-03-12T22:16:34.955Z,4.10
2019-03-12T22:19:04.483Z,4.10
2019-03-12T22:21:50.143Z,4.10
2019-03-12T22:24:21.094Z,4.10
2019-03-12T22:26:50.596Z,4.00
2019-03-12T22:29:20.160Z,4.10
2019-03-12T22:31:49.832Z,4.00
2019-03-12T22:34:19.276Z,4.00
2019-03-12T22:36:48.760Z,4.00
2019-03-12T22:39:18.235Z,4.00
2019-03-12T22:41:52.507Z,4.00
2019-03-12T22:44:21.951Z,3.90
2019-03-12T22:46:51.412Z,3.90
2019-03-12T22:49:21.019Z,3.90
2019-03-12T22:51:51.349Z,3.90
2019-03-12T22:54:24.181Z,3.80
2019-03-12T22:56:53.696Z,3.80
2019-03-12T22:59:23.168Z,3.80
2019-03-12T23:01:52.756Z,3.80
2019-03-12T23:04:22.191Z,3.80
2019-03-12T23:06:51.649Z,3.70
2019-03-12T23:09:21.140Z,3.70
2019-03-12T23:11:50.935Z,3.70
2019-03-12T23:14:20.383Z,3.70
2019-03-12T23:16:49.860Z,3.70
2019-03-12T23:19:19.296Z,3.70
2019-03-12T23:21:48.723Z,3.70
2019-03-12T23:24:18.233Z,3.70
2019-03-12T23:26:47.659Z,3.70
2019-03-12T23:29:17.120Z,3.60
2019-03-12T23:31:46.552Z,3.70
2019-03-12T23:34:15.992Z,3.60
2019-03-12T23:36:45.488Z,3.60
2019-03-12T23:39:15.038Z,3.60
2019-03-12T23:41:44.583Z,3.50
2019-03-12T23:44:14.140Z,3.50
2019-03-12T23:46:43.686Z,3.50
2019-03-12T23:49:15.282Z,3.50
2019-03-12T23:51:47.341Z,3.50
2019-03-12T23:54:17.762Z,3.40
2019-03-12T23:56:50.372Z,3.40
2019-03-12T23:59:19.862Z,3.40
